Terminal Aerodrome Forecast
Issued by NWS

Home | Current Version | Previous Version | Text Only | Print | Product List | Glossary On
Versions: 1 2 3 4 5 6 7 8 9 10 11 12 13 14
707
FTUS44 KLZK 130520
TAFLIT
TAF
KLIT 130520Z 1306/1406 24006KT P6SM SCT250
     FM130800 06003KT P6SM SCT100 BKN250
     FM131400 08007KT P6SM SCT250
     FM131800 12006KT P6SM SCT250=

USA.gov is the U.S. government's official web portal to all federal, state and local government web resources and services.